Time;durP1;ratioP1;P1;durP2;ratioP2;P2;SDS_P1;SDS_P2;PMS_P1;PMS_P2;Temp;Humidity;BMP_temperature;BMP_pressure;BME280_temperature;BME280_humidity;BME280_pressure;Samples;Min_cycle;Max_cycle;Signal;HPM_P1;HPM_P2
2022/04/09 00:01:27;;;;;;;6.67;1.40;;;21.20;84.60;;;;;;5052856;28;20254;-81
2022/04/09 00:03:54;;;;;;;5.73;1.40;;;21.20;85.00;;;;;;5054438;28;20203;-77
2022/04/09 00:06:23;;;;;;;4.53;1.30;;;21.20;84.80;;;;;;5051101;28;20265;-81
2022/04/09 00:08:50;;;;;;;7.20;1.50;;;21.20;85.20;;;;;;5053543;28;20233;-80
2022/04/09 00:11:18;;;;;;;4.63;1.50;;;21.10;85.50;;;;;;5053254;28;20207;-85
2022/04/09 00:13:45;;;;;;;5.20;1.30;;;21.10;86.10;;;;;;5052590;28;20182;-78
2022/04/09 00:16:13;;;;;;;7.87;1.67;;;21.30;85.50;;;;;;5051367;28;20263;-85
2022/04/09 00:22:03;;;;;;;14.53;2.20;;;21.10;85.10;;;;;;5052564;28;20182;-78
2022/04/09 00:24:32;;;;;;;10.30;1.33;;;21.00;85.60;;;;;;5051888;28;20659;-80
2022/04/09 00:27:00;;;;;;;13.03;3.50;;;20.70;86.60;;;;;;5052250;28;20210;-79
2022/04/09 00:29:27;;;;;;;5.33;2.00;;;20.50;87.40;;;;;;5051238;28;20176;-81
2022/04/09 00:31:55;;;;;;;6.30;1.50;;;20.30;87.10;;;;;;5053549;28;20183;-81
2022/04/09 00:34:24;;;;;;;7.13;1.67;;;20.30;87.30;;;;;;5051380;28;20266;-76
2022/04/09 00:36:51;;;;;;;7.77;1.50;;;20.50;87.20;;;;;;5052400;28;20310;-77
2022/04/09 00:39:20;;;;;;;4.17;1.53;;;20.80;87.00;;;;;;5052758;28;20168;-79
2022/04/09 00:41:49;;;;;;;6.70;2.07;;;21.00;85.90;;;;;;5050789;28;20271;-80
2022/04/09 00:44:23;;;;;;;7.20;1.60;;;21.10;84.80;;;;;;5052353;28;20193;-84
2022/04/09 00:46:50;;;;;;;6.23;1.17;;;21.30;84.60;;;;;;5052082;28;20230;-81
2022/04/09 00:49:18;;;;;;;4.97;1.17;;;21.50;82.20;;;;;;5052218;28;20234;-88
2022/04/09 00:51:46;;;;;;;8.87;1.60;;;21.90;80.50;;;;;;5052315;28;20227;-85
2022/04/09 00:54:15;;;;;;;5.33;1.40;;;22.00;80.60;;;;;;5053174;28;20184;-85
2022/04/09 00:56:44;;;;;;;7.77;1.50;;;22.10;80.20;;;;;;5053020;28;20245;-86
2022/04/09 00:59:13;;;;;;;7.37;1.37;;;22.30;79.10;;;;;;5048374;28;20267;-82
2022/04/09 01:01:41;;;;;;;5.13;1.23;;;22.30;78.50;;;;;;5055348;28;20206;-85
2022/04/09 01:04:11;;;;;;;7.13;1.83;;;22.40;78.20;;;;;;5062715;28;20296;-84
2022/04/09 01:06:39;;;;;;;4.20;1.20;;;22.30;77.70;;;;;;5055289;28;20211;-80
2022/04/09 01:09:08;;;;;;;5.93;1.30;;;22.40;78.20;;;;;;5059154;28;20179;-80
2022/04/09 01:11:35;;;;;;;9.07;1.57;;;22.80;78.60;;;;;;5054920;28;20661;-81
2022/04/09 01:14:04;;;;;;;7.30;1.30;;;23.10;77.60;;;;;;5054981;28;20180;-81
2022/04/09 01:16:31;;;;;;;5.80;1.70;;;23.30;76.40;;;;;;5056381;28;20172;-79
2022/04/09 01:19:03;;;;;;;7.37;1.60;;;23.10;75.70;;;;;;5055837;28;20179;-80
2022/04/09 01:21:30;;;;;;;7.80;2.00;;;23.20;76.50;;;;;;5049987;28;20188;-80
2022/04/09 01:23:59;;;;;;;6.87;1.50;;;23.30;75.60;;;;;;5061197;28;20182;-78
2022/04/09 01:26:26;;;;;;;11.60;1.80;;;23.50;76.40;;;;;;5060992;28;20212;-78
2022/04/09 01:28:54;;;;;;;11.53;1.67;;;23.50;75.00;;;;;;5063634;28;20183;-78
2022/04/09 01:31:21;;;;;;;13.70;2.10;;;23.40;75.70;;;;;;5067097;28;20187;-79
2022/04/09 01:33:48;;;;;;;8.00;1.80;;;23.30;75.70;;;;;;5063747;28;20631;-82
2022/04/09 01:36:16;;;;;;;12.33;2.30;;;22.60;78.60;;;;;;5054348;28;20187;-78
2022/04/09 01:38:43;;;;;;;9.67;2.30;;;22.20;82.80;;;;;;5050445;28;20246;-80
2022/04/09 01:41:10;;;;;;;12.13;2.90;;;21.80;84.20;;;;;;5055061;28;20473;-82
2022/04/09 01:43:40;;;;;;;12.50;2.67;;;21.60;85.70;;;;;;5053559;28;20234;-79
2022/04/09 01:46:08;;;;;;;9.30;1.80;;;21.40;87.20;;;;;;5051587;28;20215;-79
2022/04/09 01:48:35;;;;;;;12.47;2.07;;;21.30;86.50;;;;;;5052265;28;20187;-79
2022/04/09 01:51:02;;;;;;;9.50;2.13;;;21.20;87.10;;;;;;5054014;28;20649;-80
2022/04/09 01:53:30;;;;;;;9.20;1.80;;;21.10;86.90;;;;;;5053519;28;20635;-76
2022/04/09 01:55:57;;;;;;;13.20;2.67;;;21.20;86.70;;;;;;5055005;28;20172;-81
2022/04/09 01:58:24;;;;;;;11.47;2.73;;;21.40;86.50;;;;;;5055177;28;20207;-83
2022/04/09 02:00:58;;;;;;;13.17;2.37;;;21.60;86.90;;;;;;5054856;28;20175;-79
2022/04/09 02:03:26;;;;;;;11.37;2.27;;;21.60;85.50;;;;;;5061419;28;20226;-84
2022/04/09 02:05:54;;;;;;;14.73;2.33;;;21.60;85.20;;;;;;5053700;28;20210;-82
2022/04/09 02:08:22;;;;;;;9.47;2.27;;;21.80;85.20;;;;;;5040688;28;20188;-81
2022/04/09 02:10:49;;;;;;;11.70;2.73;;;22.50;83.50;;;;;;5046999;28;20180;-86
2022/04/09 02:13:19;;;;;;;10.07;1.87;;;22.80;82.80;;;;;;5054700;28;20194;-81
2022/04/09 02:15:46;;;;;;;9.43;1.83;;;23.20;80.00;;;;;;5053231;28;20171;-83
2022/04/09 02:18:14;;;;;;;12.73;2.60;;;23.40;78.30;;;;;;5055399;28;20576;-80
2022/04/09 02:20:41;;;;;;;15.73;2.23;;;23.80;77.50;;;;;;5054981;28;20176;-83
2022/04/09 02:23:09;;;;;;;11.00;2.27;;;23.10;77.10;;;;;;5054899;28;20269;-86
2022/04/09 02:25:36;;;;;;;9.80;2.60;;;23.30;78.30;;;;;;5043872;28;20208;-88
2022/04/09 02:28:04;;;;;;;6.70;2.27;;;23.30;78.10;;;;;;5055031;28;20271;-82
2022/04/09 02:30:31;;;;;;;11.83;1.90;;;23.90;76.70;;;;;;5053822;28;20191;-78
2022/04/09 02:32:59;;;;;;;8.97;1.70;;;23.90;77.90;;;;;;5057819;28;20180;-78
2022/04/09 02:35:28;;;;;;;8.40;1.70;;;23.60;77.60;;;;;;5084633;28;20184;-79
2022/04/09 02:37:56;;;;;;;13.13;2.10;;;23.50;78.60;;;;;;5053481;28;20186;-77
2022/04/09 02:40:24;;;;;;;11.33;2.63;;;23.30;79.40;;;;;;5052770;28;20191;-82
2022/04/09 02:42:51;;;;;;;12.57;2.23;;;22.90;78.00;;;;;;5051056;28;22094;-78
2022/04/09 02:45:20;;;;;;;10.87;2.70;;;22.70;79.80;;;;;;5054058;28;20184;-77
2022/04/09 02:47:47;;;;;;;14.97;2.70;;;22.20;82.30;;;;;;5053969;28;20569;-74
2022/04/09 02:50:15;;;;;;;16.73;2.20;;;21.60;85.30;;;;;;5044961;28;20172;-77
2022/04/09 02:52:42;;;;;;;7.10;1.77;;;21.30;86.00;;;;;;5054099;28;20627;-77
2022/04/09 02:55:10;;;;;;;5.90;1.37;;;21.00;86.30;;;;;;5054460;28;20257;-81
2022/04/09 02:57:39;;;;;;;8.33;1.77;;;20.90;86.30;;;;;;5051379;28;20180;-81
2022/04/09 03:00:11;;;;;;;10.60;2.20;;;20.90;85.40;;;;;;5053142;28;20187;-80
2022/04/09 03:02:40;;;;;;;15.70;2.60;;;21.10;85.50;;;;;;5056117;28;20207;-77
2022/04/09 03:05:08;;;;;;;12.47;2.47;;;21.20;84.50;;;;;;5054318;28;20211;-79
2022/04/09 03:07:36;;;;;;;6.47;1.60;;;21.20;84.70;;;;;;5049819;28;20219;-86
2022/04/09 03:10:04;;;;;;;14.87;2.30;;;21.20;84.90;;;;;;5047051;28;20203;-79
2022/04/09 03:12:31;;;;;;;11.63;2.80;;;21.20;84.50;;;;;;5034097;28;20180;-82
2022/04/09 03:14:58;;;;;;;7.87;1.83;;;21.30;85.10;;;;;;5033911;28;20195;-75
2022/04/09 03:17:26;;;;;;;10.53;1.83;;;21.30;84.00;;;;;;5034208;28;20186;-79
2022/04/09 03:19:53;;;;;;;6.17;1.30;;;21.10;84.70;;;;;;5034073;28;20179;-80
2022/04/09 03:22:21;;;;;;;4.73;1.10;;;20.80;83.90;;;;;;5034859;28;20666;-77
2022/04/09 03:24:49;;;;;;;8.57;1.67;;;21.00;84.90;;;;;;5033395;28;20181;-88
2022/04/09 03:27:16;;;;;;;10.37;1.83;;;21.30;84.50;;;;;;5036931;28;20549;-87
2022/04/09 03:29:47;;;;;;;13.93;3.30;;;21.50;83.80;;;;;;5036588;28;20231;-81
2022/04/09 03:32:14;;;;;;;14.07;8.47;;;21.60;82.10;;;;;;5045205;28;20266;-89
2022/04/09 03:34:42;;;;;;;9.03;3.37;;;21.80;81.20;;;;;;5074526;28;20179;-79
2022/04/09 03:37:10;;;;;;;9.73;2.97;;;22.70;79.20;;;;;;5073409;28;20609;-80
2022/04/09 03:39:39;;;;;;;9.20;2.10;;;23.40;78.30;;;;;;5038537;28;20278;-80
2022/04/09 03:42:06;;;;;;;7.20;1.73;;;24.20;74.50;;;;;;5038149;28;20243;-82
2022/04/09 03:44:34;;;;;;;9.80;1.90;;;24.40;73.60;;;;;;5033712;28;20188;-86
2022/04/09 03:47:05;;;;;;;9.13;1.90;;;24.70;72.20;;;;;;5033288;28;20204;-82
2022/04/09 03:49:33;;;;;;;8.37;2.03;;;24.90;71.50;;;;;;5065657;28;20180;-77
2022/04/09 03:52:01;;;;;;;10.87;2.20;;;25.00;70.80;;;;;;5033779;28;20183;-81
2022/04/09 03:54:30;;;;;;;10.77;2.27;;;24.60;71.70;;;;;;5033663;28;20188;-79
2022/04/09 03:56:58;;;;;;;13.63;2.37;;;24.50;72.60;;;;;;5033803;28;20184;-80
2022/04/09 03:59:25;;;;;;;11.63;2.10;;;24.00;74.40;;;;;;5033511;28;20223;-81
2022/04/09 04:01:53;;;;;;;17.63;3.27;;;23.80;75.80;;;;;;5038495;28;20183;-78
2022/04/09 04:04:21;;;;;;;12.90;2.30;;;23.30;75.90;;;;;;5066642;28;20635;-77
2022/04/09 04:06:48;;;;;;;13.43;2.53;;;23.10;77.00;;;;;;5053183;28;20246;-80
2022/04/09 04:09:19;;;;;;;14.47;2.43;;;23.30;77.00;;;;;;5053149;28;20164;-77
2022/04/09 04:11:47;;;;;;;10.27;2.47;;;23.20;77.30;;;;;;5033319;28;20208;-77
2022/04/09 04:14:14;;;;;;;15.33;2.60;;;23.20;76.40;;;;;;5032977;28;20168;-76
2022/04/09 04:16:41;;;;;;;13.60;2.50;;;23.10;76.60;;;;;;5032882;28;20176;-76
2022/04/09 04:19:09;;;;;;;13.77;2.73;;;23.00;77.20;;;;;;5033187;28;20207;-78
2022/04/09 04:21:38;;;;;;;13.37;2.60;;;23.10;77.40;;;;;;5065550;28;20190;-77
2022/04/09 04:24:06;;;;;;;8.70;2.33;;;23.00;77.10;;;;;;5032932;28;20169;-77
2022/04/09 04:26:34;;;;;;;17.93;2.67;;;23.00;77.60;;;;;;5033031;28;20663;-76
2022/04/09 04:29:01;;;;;;;12.20;2.23;;;23.10;76.60;;;;;;5032898;28;20195;-77
2022/04/09 04:31:28;;;;;;;14.67;2.50;;;23.00;76.60;;;;;;5032365;28;20689;-77
2022/04/09 04:33:56;;;;;;;11.77;2.43;;;23.00;76.90;;;;;;5070962;28;20182;-78
2022/04/09 04:36:24;;;;;;;20.40;3.20;;;22.90;76.70;;;;;;5072655;28;20178;-77
2022/04/09 04:38:52;;;;;;;23.63;10.60;;;23.40;76.50;;;;;;5076218;28;20166;-76
2022/04/09 04:41:19;;;;;;;22.73;8.30;;;24.00;73.00;;;;;;5062578;28;20226;-75
2022/04/09 04:43:51;;;;;;;18.03;6.47;;;24.80;71.10;;;;;;5058989;28;20203;-75
2022/04/09 04:46:19;;;;;;;12.73;3.33;;;25.10;69.20;;;;;;5057579;28;20211;-75
2022/04/09 04:48:47;;;;;;;13.30;4.40;;;25.20;68.70;;;;;;5059094;28;20180;-75
2022/04/09 04:51:16;;;;;;;12.23;3.10;;;24.80;69.80;;;;;;5058846;28;20172;-75
2022/04/09 04:53:43;;;;;;;14.83;3.93;;;24.30;71.00;;;;;;5058016;28;20172;-73
2022/04/09 04:56:10;;;;;;;13.87;4.70;;;23.80;71.60;;;;;;5058973;28;20313;-75
2022/04/09 04:58:38;;;;;;;15.13;6.33;;;23.30;73.70;;;;;;5059057;28;20191;-75
2022/04/09 05:01:07;;;;;;;14.07;4.90;;;23.00;74.80;;;;;;5058760;28;20172;-75
2022/04/09 05:03:37;;;;;;;10.53;3.23;;;22.60;75.30;;;;;;5075718;28;20211;-76
2022/04/09 05:06:05;;;;;;;12.90;3.13;;;22.50;76.00;;;;;;5078660;28;20286;-75
2022/04/09 05:08:33;;;;;;;13.60;3.50;;;22.40;75.90;;;;;;5067678;28;20184;-77
2022/04/09 05:11:00;;;;;;;14.07;2.87;;;22.40;76.30;;;;;;5048274;28;20172;-74
2022/04/09 05:13:27;;;;;;;13.80;2.70;;;22.30;75.80;;;;;;5050544;28;20190;-76
2022/04/09 05:15:55;;;;;;;13.27;2.80;;;22.30;76.50;;;;;;5055400;28;20180;-76
2022/04/09 05:18:22;;;;;;;12.70;2.90;;;22.30;76.00;;;;;;5048761;28;20187;-74
2022/04/09 05:20:51;;;;;;;13.27;2.43;;;22.20;76.80;;;;;;5052464;28;20611;-75
2022/04/09 05:23:19;;;;;;;14.50;2.87;;;22.30;76.80;;;;;;5052758;28;20191;-74
2022/04/09 05:25:46;;;;;;;8.30;2.20;;;22.40;76.30;;;;;;5057743;28;20739;-75
2022/04/09 05:28:13;;;;;;;12.63;2.90;;;23.00;75.00;;;;;;5058011;28;20183;-74
2022/04/09 05:30:44;;;;;;;11.67;2.50;;;24.20;70.70;;;;;;5055311;28;20198;-73
2022/04/09 05:33:11;;;;;;;10.73;2.17;;;24.90;67.80;;;;;;5056245;28;20187;-72
2022/04/09 05:35:38;;;;;;;6.87;2.03;;;24.60;68.40;;;;;;5056569;28;20187;-72
2022/04/09 05:38:08;;;;;;;8.33;2.13;;;24.80;67.70;;;;;;5056386;28;20717;-73
2022/04/09 05:40:36;;;;;;;12.13;2.13;;;25.20;67.50;;;;;;5052290;28;20541;-72
2022/04/09 05:43:04;;;;;;;14.07;2.00;;;25.10;65.70;;;;;;5054491;28;20655;-73
2022/04/09 05:45:31;;;;;;;8.63;2.30;;;24.50;67.60;;;;;;5056497;28;20587;-74
2022/04/09 05:47:59;;;;;;;17.50;2.33;;;23.90;69.70;;;;;;5057038;28;20218;-72
2022/04/09 05:50:26;;;;;;;10.80;2.67;;;23.60;70.60;;;;;;5055095;28;20180;-73
2022/04/09 05:52:54;;;;;;;13.20;2.77;;;23.30;72.20;;;;;;5049435;28;20733;-75
2022/04/09 05:55:22;;;;;;;11.87;2.40;;;23.30;72.10;;;;;;5052499;28;20207;-73
2022/04/09 05:57:49;;;;;;;10.07;2.30;;;23.30;72.50;;;;;;5049272;28;20198;-74
2022/04/09 06:00:17;;;;;;;9.83;2.90;;;23.10;72.50;;;;;;5051935;28;20222;-74
2022/04/09 06:02:44;;;;;;;11.40;2.63;;;23.90;70.50;;;;;;5059923;28;20175;-74
2022/04/09 06:05:11;;;;;;;9.90;1.90;;;24.10;68.90;;;;;;5051724;28;20190;-72
2022/04/09 06:07:39;;;;;;;8.83;2.57;;;23.70;71.10;;;;;;5053904;28;20216;-73
2022/04/09 06:10:08;;;;;;;12.77;2.80;;;24.00;69.00;;;;;;5051366;28;20183;-74
2022/04/09 06:12:36;;;;;;;8.77;2.07;;;25.20;66.40;;;;;;5050393;28;20191;-72
2022/04/09 06:15:05;;;;;;;10.73;2.10;;;25.90;64.50;;;;;;5054564;28;20183;-73
2022/04/09 06:17:33;;;;;;;9.70;2.10;;;26.40;61.60;;;;;;5054842;28;20199;-74
2022/04/09 06:20:00;;;;;;;13.87;2.50;;;26.20;60.80;;;;;;5054287;28;20187;-71
2022/04/09 06:22:28;;;;;;;10.13;2.07;;;26.10;61.20;;;;;;5054551;28;20615;-75
2022/04/09 06:24:55;;;;;;;10.80;2.10;;;26.40;61.80;;;;;;5053593;28;20204;-74
2022/04/09 06:27:22;;;;;;;9.90;1.87;;;26.70;60.40;;;;;;5054244;28;20216;-73
2022/04/09 06:29:50;;;;;;;13.33;2.13;;;26.90;59.60;;;;;;5054494;28;20202;-72
2022/04/09 06:32:17;;;;;;;8.10;1.70;;;27.10;58.20;;;;;;5059374;28;20226;-75
2022/04/09 06:34:44;;;;;;;9.77;3.70;;;26.80;57.10;;;;;;5054005;28;20214;-73
2022/04/09 06:37:12;;;;;;;10.67;3.03;;;27.00;57.60;;;;;;5054825;28;20255;-71
2022/04/09 06:39:39;;;;;;;14.00;2.77;;;26.50;57.30;;;;;;5054657;28;20160;-72
2022/04/09 06:42:07;;;;;;;12.90;3.60;;;26.10;59.60;;;;;;5053347;28;20227;-73
2022/04/09 06:44:34;;;;;;;7.63;2.07;;;26.20;60.40;;;;;;5053816;28;20279;-73
2022/04/09 06:47:01;;;;;;;9.30;2.50;;;25.40;62.50;;;;;;5052078;28;20603;-74
2022/04/09 06:49:29;;;;;;;12.30;2.60;;;24.60;65.80;;;;;;5053099;28;20180;-72
2022/04/09 06:51:56;;;;;;;14.07;2.30;;;24.00;67.40;;;;;;5052435;28;20230;-73
2022/04/09 06:54:26;;;;;;;9.00;2.10;;;23.00;71.20;;;;;;5053979;28;20176;-73
2022/04/09 06:56:54;;;;;;;8.80;2.00;;;22.50;73.10;;;;;;5052494;28;20249;-74
2022/04/09 06:59:21;;;;;;;11.87;1.90;;;22.10;72.80;;;;;;5053207;28;20172;-73
2022/04/09 07:01:48;;;;;;;11.20;2.67;;;22.00;72.90;;;;;;5051912;28;20179;-74
2022/04/09 07:04:16;;;;;;;8.30;1.77;;;21.80;72.70;;;;;;5053086;28;20182;-74
2022/04/09 07:06:46;;;;;;;5.07;1.80;;;21.80;73.30;;;;;;5051485;28;20207;-73
2022/04/09 07:09:13;;;;;;;12.67;1.90;;;21.80;73.60;;;;;;5052812;28;20203;-72
2022/04/09 07:11:41;;;;;;;13.07;2.50;;;21.80;74.40;;;;;;5045183;28;20183;-72
2022/04/09 07:14:08;;;;;;;11.73;2.17;;;21.70;74.30;;;;;;5052476;28;20517;-74
2022/04/09 07:16:36;;;;;;;10.87;2.43;;;21.60;74.90;;;;;;5052669;28;20191;-72
2022/04/09 07:19:03;;;;;;;13.60;2.73;;;21.60;75.50;;;;;;5052449;28;20270;-72
2022/04/09 07:21:31;;;;;;;11.50;2.80;;;21.50;75.70;;;;;;5053611;28;20298;-72
2022/04/09 07:23:58;;;;;;;10.40;2.00;;;21.50;76.20;;;;;;5053270;28;20184;-72
2022/04/09 07:26:25;;;;;;;13.43;2.67;;;21.40;76.00;;;;;;5053208;28;20567;-71
2022/04/09 07:28:53;;;;;;;14.87;2.47;;;21.30;76.20;;;;;;5053557;28;20646;-72
2022/04/09 07:31:20;;;;;;;11.63;2.53;;;21.30;75.70;;;;;;5052015;28;20187;-72
2022/04/09 07:33:48;;;;;;;10.63;2.37;;;21.30;75.80;;;;;;5071622;28;20269;-71
2022/04/09 07:36:15;;;;;;;9.57;2.63;;;21.30;75.40;;;;;;5053525;28;20537;-71
2022/04/09 07:38:42;;;;;;;10.83;2.23;;;21.30;75.60;;;;;;5052550;28;20634;-72
2022/04/09 07:41:10;;;;;;;14.53;2.57;;;21.30;75.70;;;;;;5040677;28;20721;-71
2022/04/09 07:43:37;;;;;;;12.77;2.70;;;21.30;75.30;;;;;;5052891;28;20306;-73
2022/04/09 07:46:04;;;;;;;14.73;2.17;;;21.30;75.00;;;;;;5052936;28;20206;-73
2022/04/09 07:48:33;;;;;;;11.03;2.20;;;21.20;75.40;;;;;;5052729;28;20639;-71
2022/04/09 07:51:00;;;;;;;12.13;2.40;;;21.20;74.90;;;;;;5052894;28;20183;-72
2022/04/09 07:53:28;;;;;;;11.40;1.90;;;21.20;74.80;;;;;;5051356;28;20172;-72
2022/04/09 07:55:55;;;;;;;11.60;2.40;;;21.10;75.10;;;;;;5053193;28;20180;-73
2022/04/09 07:58:22;;;;;;;8.83;2.47;;;21.20;75.10;;;;;;5051077;28;20184;-75
2022/04/09 08:00:50;;;;;;;14.43;4.53;;;21.20;75.30;;;;;;5033506;28;20234;-72
2022/04/09 08:03:18;;;;;;;16.20;5.03;;;21.20;75.40;;;;;;5062254;28;20279;-72
2022/04/09 08:05:45;;;;;;;21.33;5.77;;;21.20;75.90;;;;;;5064510;28;20697;-75
2022/04/09 08:08:12;;;;;;;15.87;2.97;;;21.10;76.10;;;;;;5053529;28;20175;-73
2022/04/09 08:10:40;;;;;;;16.93;4.30;;;21.10;76.30;;;;;;5043193;28;20654;-75
2022/04/09 08:13:08;;;;;;;12.87;3.57;;;21.10;76.20;;;;;;5051247;28;20233;-72
2022/04/09 08:15:35;;;;;;;16.53;2.60;;;21.00;76.00;;;;;;5052166;28;20172;-75
2022/04/09 08:18:07;;;;;;;10.40;2.50;;;21.00;76.00;;;;;;5051819;28;20242;-71
2022/04/09 08:20:34;;;;;;;13.20;2.20;;;21.00;75.70;;;;;;5052194;28;20172;-73
2022/04/09 08:23:02;;;;;;;10.43;2.10;;;20.90;75.90;;;;;;5052626;28;20186;-72
2022/04/09 08:25:29;;;;;;;14.73;2.60;;;20.90;75.70;;;;;;5052815;28;20230;-73
2022/04/09 08:27:56;;;;;;;12.30;2.50;;;20.90;75.90;;;;;;5051732;28;20223;-74
2022/04/09 08:30:24;;;;;;;6.80;2.00;;;20.80;76.10;;;;;;5052133;28;20521;-74
2022/04/09 08:32:52;;;;;;;10.53;2.00;;;20.80;76.30;;;;;;5052185;28;20180;-73
2022/04/09 08:35:20;;;;;;;15.53;2.73;;;20.90;75.80;;;;;;5051178;28;20262;-73
2022/04/09 08:37:58;;;;;;;9.63;1.97;;;20.80;76.20;;;;;;5052179;28;20267;-73
2022/04/09 08:40:26;;;;;;;12.80;2.90;;;20.80;76.70;;;;;;5051364;28;20179;-74
2022/04/09 08:42:55;;;;;;;10.47;2.50;;;20.80;76.80;;;;;;5051355;28;20628;-74
2022/04/09 08:45:22;;;;;;;8.93;2.33;;;20.80;76.70;;;;;;5052388;28;20176;-73
2022/04/09 08:47:51;;;;;;;12.53;2.47;;;20.80;76.90;;;;;;5051667;28;20563;-76
2022/04/09 08:50:20;;;;;;;16.30;3.17;;;20.80;77.00;;;;;;5051075;28;20280;-73
2022/04/09 08:52:47;;;;;;;12.30;2.63;;;20.70;77.00;;;;;;5052418;28;20245;-72
2022/04/09 08:55:14;;;;;;;13.03;2.40;;;20.80;76.30;;;;;;5052174;28;20183;-71
2022/04/09 08:57:43;;;;;;;14.53;3.03;;;20.80;76.40;;;;;;5051273;28;20659;-75
2022/04/09 09:00:13;;;;;;;10.77;2.63;;;20.80;76.50;;;;;;5052392;28;20626;-73
2022/04/09 09:02:56;;;;;;;12.17;3.00;;;20.80;76.80;;;;;;5052105;28;20263;-72
2022/04/09 09:05:32;;;;;;;16.73;2.90;;;20.80;77.10;;;;;;5040502;28;20714;-72
2022/04/09 09:08:00;;;;;;;7.40;2.10;;;20.70;77.50;;;;;;5033882;28;20564;-74
2022/04/09 09:10:28;;;;;;;12.53;2.53;;;20.70;77.90;;;;;;5052000;28;20271;-73
2022/04/09 09:13:05;;;;;;;14.27;2.60;;;20.60;78.10;;;;;;5051479;28;20241;-73
2022/04/09 09:15:53;;;;;;;14.80;2.30;;;20.60;77.60;;;;;;5051625;28;20507;-73
2022/04/09 09:18:32;;;;;;;12.10;2.50;;;20.60;77.50;;;;;;5051731;28;20176;-73
2022/04/09 09:21:01;;;;;;;10.13;2.03;;;20.60;77.10;;;;;;5050734;28;20195;-74
2022/04/09 09:23:31;;;;;;;12.47;2.40;;;20.60;77.00;;;;;;5050051;28;20666;-73
2022/04/09 09:26:00;;;;;;;13.13;5.87;;;20.40;77.40;;;;;;5053059;28;20498;-72
2022/04/09 09:28:32;;;;;;;9.97;3.23;;;20.50;77.00;;;;;;5053322;28;20211;-74
2022/04/09 09:31:01;;;;;;;18.47;4.37;;;20.50;77.10;;;;;;5055020;28;20179;-74
2022/04/09 09:33:29;;;;;;;12.93;2.50;;;20.50;77.40;;;;;;5062732;28;20184;-78
2022/04/09 09:36:01;;;;;;;16.77;2.50;;;20.50;76.80;;;;;;5055468;28;20168;-74
2022/04/09 09:38:32;;;;;;;11.67;2.37;;;20.40;77.20;;;;;;5054987;28;20188;-77
2022/04/09 09:41:01;;;;;;;16.17;2.47;;;20.40;77.40;;;;;;5046869;28;20252;-75
2022/04/09 09:43:29;;;;;;;13.23;2.60;;;20.40;77.70;;;;;;5052027;28;20211;-74
2022/04/09 09:45:56;;;;;;;14.60;2.70;;;20.40;78.20;;;;;;5051996;28;20180;-72
2022/04/09 09:48:28;;;;;;;13.93;2.97;;;20.40;78.10;;;;;;5054331;28;20191;-75
2022/04/09 09:50:57;;;;;;;11.50;2.43;;;20.40;77.50;;;;;;5054708;28;20511;-74
2022/04/09 09:53:28;;;;;;;14.17;3.07;;;20.40;77.60;;;;;;5054765;28;20237;-73
2022/04/09 09:55:56;;;;;;;19.57;2.70;;;20.50;78.00;;;;;;5053045;28;20177;-76
2022/04/09 09:58:25;;;;;;;10.20;3.73;;;20.60;77.70;;;;;;5055086;28;20194;-74
2022/04/09 10:00:54;;;;;;;17.63;3.60;;;20.70;77.90;;;;;;5055215;28;20176;-74
2022/04/09 10:03:21;;;;;;;15.10;3.70;;;20.60;78.00;;;;;;5051460;28;20348;-77
2022/04/09 10:05:50;;;;;;;14.20;3.10;;;20.70;78.30;;;;;;5054167;28;20183;-77
2022/04/09 10:08:21;;;;;;;13.20;2.30;;;20.80;78.30;;;;;;5055035;28;20638;-76
2022/04/09 10:10:50;;;;;;;10.57;2.67;;;20.80;78.20;;;;;;5054936;28;20207;-75
2022/04/09 10:13:21;;;;;;;10.07;2.53;;;20.80;78.60;;;;;;5053902;28;20204;-75
2022/04/09 10:15:51;;;;;;;12.87;2.30;;;20.90;78.70;;;;;;5052320;28;20238;-76
2022/04/09 10:18:24;;;;;;;10.33;2.70;;;20.80;79.50;;;;;;5054738;28;20642;-79
2022/04/09 10:20:59;;;;;;;13.23;2.90;;;20.80;80.20;;;;;;5054972;28;20184;-79
2022/04/09 10:23:34;;;;;;;12.73;2.90;;;20.80;80.90;;;;;;5053777;28;20183;-75
2022/04/09 10:26:04;;;;;;;14.03;3.23;;;20.80;80.50;;;;;;5052840;28;20183;-75
2022/04/09 10:28:38;;;;;;;13.80;3.40;;;20.80;81.00;;;;;;5053896;28;20188;-75
2022/04/09 10:31:23;;;;;;;22.43;3.50;;;20.80;80.90;;;;;;5053233;28;20555;-76
2022/04/09 10:33:55;;;;;;;21.37;3.00;;;20.60;84.50;;;;;;5057224;28;20180;-79
2022/04/09 10:36:41;;;;;;;15.83;2.00;;;20.30;85.50;;;;;;5054052;28;20172;-82
2022/04/09 10:39:36;;;;;;;15.03;2.40;;;20.30;85.80;;;;;;5054056;28;20168;-75
2022/04/09 10:42:04;;;;;;;16.70;2.10;;;20.10;85.30;;;;;;5043552;28;20285;-88
2022/04/09 10:44:37;;;;;;;12.67;2.20;;;20.00;85.10;;;;;;5053747;28;20282;-85
2022/04/09 10:47:05;;;;;;;13.13;2.10;;;19.90;85.60;;;;;;5053697;28;20246;-77
2022/04/09 10:49:32;;;;;;;10.67;2.27;;;19.80;85.80;;;;;;5054608;28;20624;-85
2022/04/09 10:52:06;;;;;;;9.40;2.07;;;19.70;86.50;;;;;;5054377;28;20173;-83
2022/04/09 10:54:36;;;;;;;8.87;2.37;;;19.60;86.20;;;;;;5055374;28;20211;-83
2022/04/09 10:57:20;;;;;;;8.33;1.97;;;19.50;85.70;;;;;;5053488;28;20176;-78
2022/04/09 11:00:07;;;;;;;8.10;1.80;;;19.60;84.00;;;;;;5052744;28;20187;-78
2022/04/09 11:02:34;;;;;;;8.67;1.97;;;19.60;83.20;;;;;;5056584;28;20266;-81
2022/04/09 11:05:22;;;;;;;13.73;2.40;;;19.70;83.00;;;;;;5053049;28;20183;-79
2022/04/09 11:08:09;;;;;;;8.43;2.07;;;19.60;83.30;;;;;;5053463;28;20207;-80
2022/04/09 11:10:37;;;;;;;13.07;2.20;;;19.60;82.60;;;;;;5053408;28;20255;-80
2022/04/09 11:13:10;;;;;;;6.40;2.00;;;19.60;83.00;;;;;;5054016;28;20190;-75
2022/04/09 11:15:39;;;;;;;8.90;2.00;;;19.60;82.10;;;;;;5054130;28;20164;-75
2022/04/09 11:18:07;;;;;;;6.10;2.00;;;19.70;81.20;;;;;;5053532;28;20183;-75
2022/04/09 11:20:37;;;;;;;6.97;1.80;;;19.70;81.00;;;;;;5052305;28;20270;-76
2022/04/09 11:23:14;;;;;;;9.20;2.00;;;19.80;79.60;;;;;;5053021;28;20183;-76
2022/04/09 11:25:44;;;;;;;8.10;2.00;;;19.80;79.50;;;;;;5053221;28;20511;-75
2022/04/09 11:28:19;;;;;;;8.93;1.90;;;19.80;79.80;;;;;;5053628;28;20206;-76
2022/04/09 11:30:54;;;;;;;16.40;2.50;;;19.80;80.20;;;;;;5053889;28;20171;-76
2022/04/09 11:33:22;;;;;;;10.23;2.40;;;19.80;81.00;;;;;;5054416;28;20207;-76
2022/04/09 11:35:50;;;;;;;10.70;2.20;;;19.80;81.60;;;;;;5053382;28;20263;-75
2022/04/09 11:38:17;;;;;;;8.67;2.47;;;19.80;81.90;;;;;;5053147;28;20175;-76
2022/04/09 11:40:48;;;;;;;10.40;1.80;;;19.70;82.50;;;;;;5050048;28;20212;-74
2022/04/09 11:43:17;;;;;;;9.67;2.40;;;19.70;82.60;;;;;;5051973;28;20187;-75
2022/04/09 11:45:45;;;;;;;10.97;2.43;;;19.70;82.70;;;;;;5053067;28;20179;-75
2022/04/09 11:48:18;;;;;;;8.63;2.00;;;19.60;83.10;;;;;;5052540;28;20697;-75
2022/04/09 11:50:47;;;;;;;9.03;2.13;;;19.60;83.90;;;;;;5052325;28;20639;-75
2022/04/09 11:53:15;;;;;;;11.00;2.20;;;19.60;84.70;;;;;;5052250;28;20259;-74
2022/04/09 11:55:44;;;;;;;13.73;2.00;;;19.70;84.90;;;;;;5051745;28;21343;-74
2022/04/09 11:58:18;;;;;;;14.87;2.20;;;19.70;85.00;;;;;;5053239;28;20175;-74
2022/04/09 12:00:46;;;;;;;16.23;2.77;;;19.70;85.00;;;;;;5051737;28;20643;-75
2022/04/09 12:03:15;;;;;;;12.10;2.13;;;19.70;84.90;;;;;;5066441;28;20191;-74
2022/04/09 12:05:47;;;;;;;12.13;2.67;;;19.90;84.50;;;;;;5055817;28;20255;-75
2022/04/09 12:08:17;;;;;;;15.67;2.43;;;19.90;84.40;;;;;;5052442;28;20212;-76
2022/04/09 12:10:56;;;;;;;9.23;2.00;;;19.90;84.90;;;;;;5051532;28;20718;-75
2022/04/09 12:13:37;;;;;;;9.10;1.60;;;19.80;84.70;;;;;;5042368;28;20215;-75
2022/04/09 12:16:19;;;;;;;9.43;1.83;;;19.80;84.50;;;;;;5037612;28;20180;-76
2022/04/09 12:18:48;;;;;;;8.37;2.13;;;19.60;84.80;;;;;;5051898;28;20541;-75
2022/04/09 12:21:23;;;;;;;11.47;2.10;;;19.60;84.20;;;;;;5039009;28;20211;-75
2022/04/09 12:24:05;;;;;;;9.60;2.07;;;19.50;84.50;;;;;;5032827;28;20176;-78
2022/04/09 12:26:34;;;;;;;8.57;2.10;;;19.40;84.80;;;;;;5051399;28;20682;-75
2022/04/09 12:29:24;;;;;;;11.97;2.50;;;19.40;85.10;;;;;;5052919;28;20191;-75
2022/04/09 12:32:12;;;;;;;7.43;2.27;;;19.30;85.10;;;;;;5054810;28;20202;-76
2022/04/09 12:34:59;;;;;;;8.33;1.60;;;19.20;85.50;;;;;;5071416;28;20193;-74
2022/04/09 12:37:27;;;;;;;13.33;2.43;;;19.10;85.50;;;;;;5072790;28;20660;-74
2022/04/09 12:40:13;;;;;;;11.97;2.60;;;19.10;86.20;;;;;;5067608;28;20182;-73
2022/04/09 12:42:43;;;;;;;11.57;2.33;;;19.00;86.40;;;;;;5052926;28;20303;-77
2022/04/09 12:45:23;;;;;;;15.17;2.77;;;19.00;86.60;;;;;;5090319;28;20701;-77
2022/04/09 12:47:58;;;;;;;10.87;2.40;;;19.00;87.00;;;;;;5046103;28;20220;-78
2022/04/09 12:50:30;;;;;;;8.23;2.87;;;18.90;87.30;;;;;;5048032;28;20178;-74
2022/04/09 12:52:59;;;;;;;19.07;2.63;;;18.90;87.40;;;;;;5066863;28;20185;-75
2022/04/09 12:55:27;;;;;;;15.90;3.50;;;18.90;87.80;;;;;;5054422;28;20215;-75